createdAt,value
2023-04-13T00:02:10.778Z,94344.81
2023-04-13T00:04:37.553Z,94345.75
2023-04-13T00:07:04.218Z,94341.22
2023-04-13T00:09:31.143Z,94345.47
2023-04-13T00:12:01.518Z,94341.88
2023-04-13T00:14:33.981Z,94364.53
2023-04-13T00:17:00.939Z,94359.91
2023-04-13T00:19:28.543Z,94368.38
2023-04-13T00:21:55.104Z,94375.13
2023-04-13T00:24:22.031Z,94369.88
2023-04-13T00:26:48.727Z,94376.41
2023-04-13T00:29:15.621Z,94368.91
2023-04-13T00:31:43.713Z,94370.25
2023-04-13T00:34:10.398Z,94371.47
2023-04-13T00:36:37.219Z,94372.97
2023-04-13T00:39:04.270Z,94372.22
2023-04-13T00:41:31.520Z,94377.22
2023-04-13T00:43:59.154Z,94371.78
2023-04-13T00:46:29.604Z,94366.34
2023-04-13T00:48:58.249Z,94369.41
2023-04-13T00:51:24.930Z,94372.47
2023-04-13T00:53:51.618Z,94368.72
2023-04-13T00:56:19.205Z,94364.53
2023-04-13T00:58:45.817Z,94371.28
2023-04-13T01:01:12.522Z,94369.78
2023-04-13T01:03:40.081Z,94381.63
2023-04-13T01:06:10.125Z,94370.25
2023-04-13T01:08:40.090Z,94380.88
2023-04-13T01:11:15.371Z,94379.00
2023-04-13T01:13:48.647Z,94382.63
2023-04-13T01:16:25.435Z,94381.00
2023-04-13T01:21:39.268Z,94382.94
2023-04-13T01:24:17.992Z,94374.19
2023-04-13T01:26:58.481Z,94381.09
2023-04-13T01:29:26.761Z,94374.03
2023-04-13T01:31:54.418Z,94378.72
2023-04-13T01:34:23.317Z,94371.88
2023-04-13T01:36:50.341Z,94366.28
2023-04-13T01:39:19.382Z,94370.50
2023-04-13T01:41:47.731Z,94382.38
2023-04-13T01:44:14.529Z,94378.91
2023-04-13T01:46:47.743Z,94368.44
2023-04-13T01:49:52.498Z,94371.06
2023-04-13T01:52:32.459Z,94368.16
2023-04-13T01:55:00.842Z,94367.13
2023-04-13T01:57:31.218Z,94371.03
2023-04-13T02:00:14.285Z,94354.81
2023-04-13T02:02:45.186Z,94363.19
2023-04-13T02:05:12.422Z,94357.69
2023-04-13T02:07:40.018Z,94365.31
2023-04-13T02:10:06.926Z,94364.97
2023-04-13T02:12:34.301Z,94361.09
2023-04-13T02:15:01.365Z,94367.34
2023-04-13T02:17:29.564Z,94370.41
2023-04-13T02:19:57.634Z,94381.47
2023-04-13T02:22:24.480Z,94369.44
2023-04-13T02:24:51.279Z,94374.69
2023-04-13T02:27:18.132Z,94383.34
2023-04-13T02:29:44.858Z,94386.72
2023-04-13T02:32:11.781Z,94387.78
2023-04-13T02:34:38.765Z,94391.47
2023-04-13T02:37:09.463Z,94402.44
2023-04-13T02:39:37.395Z,94396.66
2023-04-13T02:42:05.561Z,94407.66
2023-04-13T02:44:34.094Z,94393.53
2023-04-13T02:47:01.519Z,94389.34
2023-04-13T02:49:28.413Z,94390.41
2023-04-13T02:52:31.516Z,94406.63
2023-04-13T02:55:03.093Z,94395.63
2023-04-13T02:57:42.257Z,94399.03
2023-04-13T03:00:10.813Z,94406.66
2023-04-13T03:02:47.063Z,94417.88
2023-04-13T03:05:16.715Z,94412.38
2023-04-13T03:07:46.664Z,94421.53
2023-04-13T03:10:14.130Z,94415.53
2023-04-13T03:12:42.748Z,94415.25
2023-04-13T03:15:12.111Z,94411.31
2023-04-13T03:17:40.866Z,94411.34
2023-04-13T03:20:11.144Z,94415.03
2023-04-13T03:22:39.649Z,94417.09
2023-04-13T03:25:08.392Z,94412.66
2023-04-13T03:27:38.487Z,94414.72
2023-04-13T03:30:08.156Z,94424.56
2023-04-13T03:32:44.915Z,94417.06
2023-04-13T03:35:12.009Z,94423.88
2023-04-13T03:37:43.493Z,94430.13
2023-04-13T03:40:27.694Z,94430.59
2023-04-13T03:42:55.788Z,94423.84
2023-04-13T03:45:25.394Z,94421.78
2023-04-13T03:47:55.529Z,94425.41
2023-04-13T03:50:23.750Z,94424.41
2023-04-13T03:52:52.188Z,94425.47
2023-04-13T03:55:19.150Z,94433.31
2023-04-13T03:57:49.437Z,94433.28
2023-04-13T04:00:20.492Z,94428.03
2023-04-13T04:03:01.220Z,94425.47
2023-04-13T04:05:36.675Z,94430.66
2023-04-13T04:08:04.884Z,94434.59
2023-04-13T04:10:31.663Z,94433.00
2023-04-13T04:12:59.560Z,94437.91
2023-04-13T04:15:27.866Z,94432.19
2023-04-13T04:18:00.779Z,94441.09
2023-04-13T04:20:28.719Z,94432.78
2023-04-13T04:23:01.047Z,94442.66
2023-04-13T04:25:33.471Z,94446.34
2023-04-13T04:28:02.410Z,94443.13
2023-04-13T04:30:33.905Z,94448.91
2023-04-13T04:33:02.757Z,94437.84
2023-04-13T04:35:34.651Z,94444.69
2023-04-13T04:38:04.495Z,94453.06
2023-04-13T04:40:36.890Z,94460.06
2023-04-13T04:43:06.447Z,94452.81
2023-04-13T04:45:52.181Z,94454.06
2023-04-13T04:48:20.484Z,94447.63
2023-04-13T04:50:49.022Z,94450.81
2023-04-13T04:53:17.374Z,94453.19
2023-04-13T04:55:46.498Z,94451.66
2023-04-13T04:58:23.444Z,94460.56
2023-04-13T05:00:56.819Z,94459.53
2023-04-13T05:03:23.887Z,94458.47
2023-04-13T05:05:57.827Z,94443.28
2023-04-13T05:08:30.640Z,94451.69
2023-04-13T05:10:57.479Z,94453.19
2023-04-13T05:13:24.189Z,94448.00
2023-04-13T05:16:10.820Z,94442.94
2023-04-13T05:18:45.959Z,94453.94
2023-04-13T05:21:24.445Z,94453.66
2023-04-13T05:23:58.205Z,94442.03
2023-04-13T05:26:25.656Z,94454.09
2023-04-13T05:28:54.604Z,94452.94
2023-04-13T05:31:24.719Z,94452.97
2023-04-13T05:33:52.891Z,94448.72
2023-04-13T05:36:19.610Z,94452.75
2023-04-13T05:38:47.804Z,94456.94
2023-04-13T05:41:20.058Z,94451.63
2023-04-13T05:43:46.933Z,94449.50
2023-04-13T05:46:13.728Z,94445.28
2023-04-13T05:48:42.061Z,94441.47
2023-04-13T05:51:09.288Z,94447.25
2023-04-13T05:53:36.571Z,94445.81
2023-04-13T05:56:03.542Z,94447.97
2023-04-13T05:58:31.814Z,94451.81
2023-04-13T06:01:12.835Z,94445.88
2023-04-13T06:03:40.050Z,94431.25
2023-04-13T06:06:07.051Z,94434.56
2023-04-13T06:08:34.660Z,94445.47
2023-04-13T06:11:01.645Z,94437.88
2023-04-13T06:13:28.554Z,94439.00
2023-04-13T06:15:55.236Z,94444.75
2023-04-13T06:18:22.336Z,94448.28
2023-04-13T06:20:48.983Z,94441.41
2023-04-13T06:23:15.816Z,94440.34
2023-04-13T06:25:42.644Z,94449.53
2023-04-13T06:28:12.352Z,94442.00
2023-04-13T06:30:42.284Z,94451.75
2023-04-13T06:33:12.620Z,94445.69
2023-04-13T06:35:41.101Z,94444.38
2023-04-13T06:38:10.139Z,94441.59
2023-04-13T06:40:48.691Z,94452.53
2023-04-13T06:43:26.413Z,94444.44
2023-04-13T06:46:14.520Z,94444.06
2023-04-13T06:48:44.202Z,94444.19
2023-04-13T06:51:12.924Z,94440.13
2023-04-13T06:53:42.133Z,94436.72
2023-04-13T06:56:08.912Z,94434.91
2023-04-13T06:58:36.966Z,94439.97
2023-04-13T07:01:04.431Z,94441.69
2023-04-13T07:03:34.084Z,94443.81
2023-04-13T07:06:02.713Z,94433.66
2023-04-13T07:08:29.583Z,94428.72
2023-04-13T07:10:57.673Z,94431.88
2023-04-13T07:13:32.680Z,94435.00
2023-04-13T07:15:59.713Z,94439.75
2023-04-13T07:18:27.000Z,94432.72
2023-04-13T07:20:54.415Z,94435.47
2023-04-13T07:23:24.760Z,94431.94
2023-04-13T07:25:51.884Z,94432.81
2023-04-13T07:28:23.357Z,94438.31
2023-04-13T07:30:53.687Z,94426.72
2023-04-13T07:33:21.039Z,94427.59
2023-04-13T07:35:51.548Z,94422.31
2023-04-13T07:38:18.403Z,94417.03
2023-04-13T07:40:45.913Z,94415.63
2023-04-13T07:43:12.849Z,94420.75
2023-04-13T07:45:42.604Z,94410.56
2023-04-13T07:48:09.892Z,94409.00
2023-04-13T07:50:42.814Z,94410.97
2023-04-13T07:53:13.637Z,94398.13
2023-04-13T07:55:41.432Z,94409.97
2023-04-13T07:58:09.281Z,94404.81
2023-04-13T08:00:36.917Z,94403.09
2023-04-13T08:03:06.404Z,94396.50
2023-04-13T08:05:36.723Z,94396.91
2023-04-13T08:08:03.549Z,94386.56
2023-04-13T08:10:30.621Z,94395.47
2023-04-13T08:13:00.305Z,94397.38
2023-04-13T08:15:27.330Z,94393.16
2023-04-13T08:17:54.596Z,94384.00
2023-04-13T08:20:23.021Z,94388.97
2023-04-13T08:22:52.965Z,94387.75
2023-04-13T08:25:20.934Z,94376.03
2023-04-13T08:27:47.862Z,94373.03
2023-04-13T08:30:14.725Z,94376.78
2023-04-13T08:33:07.841Z,94365.91
2023-04-13T08:35:39.161Z,94367.16
2023-04-13T08:38:09.319Z,94365.91
2023-04-13T08:40:40.760Z,94363.75
2023-04-13T08:43:13.312Z,94373.66
2023-04-13T08:45:43.563Z,94352.78
2023-04-13T08:48:11.749Z,94350.75
2023-04-13T08:50:40.310Z,94349.28
2023-04-13T08:53:09.284Z,94351.50
2023-04-13T08:55:43.087Z,94342.44
2023-04-13T08:58:12.368Z,94346.78
2023-04-13T09:00:41.804Z,94347.38
2023-04-13T09:03:14.077Z,94335.97
2023-04-13T09:05:45.744Z,94340.69
2023-04-13T09:08:14.265Z,94342.34
2023-04-13T09:10:45.875Z,94342.06
2023-04-13T09:13:12.840Z,94337.34
2023-04-13T09:15:41.175Z,94330.06
2023-04-13T09:18:18.948Z,94331.53
2023-04-13T09:20:58.127Z,94328.63
2023-04-13T09:23:24.791Z,94334.72
2023-04-13T09:26:04.163Z,94326.41
2023-04-13T09:28:31.018Z,94330.06
2023-04-13T09:31:04.542Z,94323.50
2023-04-13T09:33:34.153Z,94314.66
2023-04-13T09:36:08.988Z,94304.34
2023-04-13T09:38:35.825Z,94300.19
2023-04-13T09:41:03.021Z,94305.88
2023-04-13T09:43:39.740Z,94298.13
2023-04-13T09:46:14.039Z,94298.13
2023-04-13T09:48:41.144Z,94295.38
2023-04-13T09:51:08.736Z,94290.47
2023-04-13T09:53:49.770Z,94284.06
2023-04-13T09:56:17.401Z,94281.78
2023-04-13T09:58:45.116Z,94279.81
2023-04-13T10:01:12.166Z,94276.97
2023-04-13T10:03:39.069Z,94268.78
2023-04-13T10:06:07.868Z,94267.44
2023-04-13T10:08:38.898Z,94264.81
2023-04-13T10:11:08.703Z,94260.78
2023-04-13T10:13:37.864Z,94265.84
2023-04-13T10:16:19.804Z,94257.63
2023-04-13T10:18:53.226Z,94262.00
2023-04-13T10:21:20.159Z,94247.25
2023-04-13T10:23:46.976Z,94245.09
2023-04-13T10:26:13.963Z,94249.06
2023-04-13T10:28:49.849Z,94247.44
2023-04-13T10:31:16.965Z,94248.59
2023-04-13T10:33:47.409Z,94240.53
2023-04-13T10:36:14.128Z,94231.94
2023-04-13T10:38:44.650Z,94236.03
2023-04-13T10:41:22.759Z,94230.63
2023-04-13T10:43:59.716Z,94219.22
2023-04-13T10:46:26.803Z,94222.50
2023-04-13T10:48:59.390Z,94226.44
2023-04-13T10:51:27.618Z,94217.72
2023-04-13T10:54:04.247Z,94218.41
2023-04-13T10:56:31.062Z,94220.03
2023-04-13T10:58:57.951Z,94224.06
2023-04-13T11:01:25.422Z,94215.81
2023-04-13T11:04:04.112Z,94204.63
2023-04-13T11:06:38.544Z,94202.53
2023-04-13T11:09:07.069Z,94192.50
2023-04-13T11:11:36.219Z,94197.25
2023-04-13T11:14:03.880Z,94190.81
2023-04-13T11:16:31.678Z,94189.81
2023-04-13T11:19:02.797Z,94189.16
2023-04-13T11:21:30.153Z,94180.97
2023-04-13T11:24:02.750Z,94181.13
2023-04-13T11:26:38.204Z,94181.50
2023-04-13T11:29:05.329Z,94176.28
2023-04-13T11:31:39.268Z,94177.78
2023-04-13T11:34:06.785Z,94173.53
2023-04-13T11:36:33.600Z,94162.13
2023-04-13T11:39:02.029Z,94160.44
2023-04-13T11:41:30.254Z,94160.19
2023-04-13T11:43:57.195Z,94164.44
2023-04-13T11:46:27.105Z,94163.41
2023-04-13T11:48:54.992Z,94168.31
2023-04-13T11:51:22.364Z,94164.63
2023-04-13T11:53:50.634Z,94157.94
2023-04-13T11:56:18.248Z,94169.91
2023-04-13T11:58:45.013Z,94164.97
2023-04-13T12:01:20.247Z,94161.41
2023-04-13T12:06:48.736Z,94158.81
2023-04-13T12:09:17.932Z,94153.66
2023-04-13T12:11:52.040Z,94144.19
2023-04-13T12:19:43.369Z,94145.63
2023-04-13T12:22:12.133Z,94135.78
2023-04-13T12:24:40.160Z,94131.97
2023-04-13T12:27:17.044Z,94133.28
2023-04-13T12:29:44.776Z,94130.16
2023-04-13T12:32:15.102Z,94116.31
2023-04-13T12:34:42.595Z,94123.22
2023-04-13T12:37:34.637Z,94114.47
2023-04-13T12:40:01.883Z,94104.22
2023-04-13T12:42:28.666Z,94102.78
2023-04-13T12:45:38.742Z,94096.63
2023-04-13T12:48:06.634Z,94099.69
2023-04-13T12:50:33.768Z,94091.97
2023-04-13T12:53:00.360Z,94094.25
2023-04-13T12:55:27.249Z,94091.94
2023-04-13T12:57:53.883Z,94086.16
2023-04-13T13:00:21.230Z,94087.38
2023-04-13T13:02:52.163Z,94085.84
2023-04-13T13:05:23.717Z,94078.09
2023-04-13T13:07:50.525Z,94080.84
2023-04-13T13:12:48.930Z,94072.72
2023-04-13T13:15:43.520Z,94065.75
2023-04-13T13:18:11.413Z,94058.91
2023-04-13T13:20:41.595Z,94063.81
2023-04-13T13:23:12.467Z,94061.34
2023-04-13T13:25:42.432Z,94059.59
2023-04-13T13:28:14.592Z,94058.78
2023-04-13T13:30:42.421Z,94051.97
2023-04-13T13:33:09.211Z,94060.41
2023-04-13T13:35:35.987Z,94058.91
2023-04-13T13:38:03.384Z,94051.91
2023-04-13T13:40:30.081Z,94046.50
2023-04-13T13:42:56.865Z,94053.31
2023-04-13T13:45:23.857Z,94042.03
2023-04-13T13:47:52.218Z,94047.13
2023-04-13T13:50:21.739Z,94036.53
2023-04-13T13:53:03.080Z,94040.00
2023-04-13T13:55:37.055Z,94039.63
2023-04-13T13:58:03.869Z,94033.78
2023-04-13T14:00:31.172Z,94035.44
2023-04-13T14:02:57.900Z,94030.59
2023-04-13T14:05:24.818Z,94039.91
2023-04-13T14:07:51.470Z,94021.38
2023-04-13T14:10:18.205Z,94023.38
2023-04-13T14:12:47.385Z,94017.63
2023-04-13T14:15:15.722Z,94001.88
2023-04-13T14:17:42.554Z,93999.63
2023-04-13T14:20:10.495Z,94002.28
2023-04-13T14:22:37.941Z,93996.03
2023-04-13T14:25:06.089Z,93994.78
2023-04-13T14:27:33.116Z,94005.75
2023-04-13T14:29:59.915Z,93996.53
2023-04-13T14:32:27.019Z,93998.41
2023-04-13T14:34:53.698Z,93999.16
2023-04-13T14:37:20.465Z,93993.97
2023-04-13T14:39:47.091Z,93995.50
2023-04-13T14:42:13.879Z,94002.38
2023-04-13T14:44:40.551Z,94003.88
2023-04-13T14:47:08.953Z,94005.81
2023-04-13T14:49:36.225Z,94010.78
2023-04-13T14:52:03.678Z,93998.47
2023-04-13T14:54:30.526Z,93999.63
2023-04-13T14:56:57.941Z,94004.28
2023-04-13T14:59:25.347Z,94005.03
2023-04-13T15:01:52.140Z,94001.84
2023-04-13T15:04:19.741Z,94009.44
2023-04-13T15:06:49.394Z,94023.78
2023-04-13T15:09:16.176Z,94031.94
2023-04-13T15:11:42.887Z,94026.53
2023-04-13T15:14:09.475Z,94033.47
2023-04-13T15:16:36.554Z,94028.81
2023-04-13T15:19:04.127Z,94038.78
2023-04-13T15:21:31.765Z,94028.41
2023-04-13T15:23:58.447Z,94036.63
2023-04-13T15:26:26.443Z,94030.94
2023-04-13T15:28:53.496Z,94035.97
2023-04-13T15:31:21.583Z,94034.66
2023-04-13T15:33:48.240Z,94042.84
2023-04-13T15:36:16.152Z,94041.75
2023-04-13T15:38:43.262Z,94037.28
2023-04-13T15:41:11.346Z,94031.22
2023-04-13T15:43:38.351Z,94032.00
2023-04-13T15:46:05.316Z,94033.44
2023-04-13T15:48:32.335Z,94040.34
2023-04-13T15:51:00.880Z,94033.53
2023-04-13T15:53:29.110Z,94036.66
2023-04-13T15:55:56.938Z,94038.66
2023-04-13T15:58:23.662Z,94036.22
2023-04-13T16:01:03.724Z,94034.59
2023-04-13T16:03:31.801Z,94043.66
2023-04-13T16:05:59.551Z,94038.88
2023-04-13T16:08:26.189Z,94044.09
2023-04-13T16:10:54.595Z,94043.88
2023-04-13T16:13:22.185Z,94038.28
2023-04-13T16:15:53.297Z,94044.41
2023-04-13T16:18:21.885Z,94044.22
2023-04-13T16:20:49.695Z,94038.28
2023-04-13T16:23:17.531Z,94039.19
2023-04-13T16:25:44.210Z,94046.97
2023-04-13T16:28:10.881Z,94048.97
2023-04-13T16:30:37.770Z,94047.41
2023-04-13T16:33:05.674Z,94053.38
2023-04-13T16:35:33.220Z,94045.00
2023-04-13T16:38:00.006Z,94045.91
2023-04-13T16:40:26.681Z,94054.34
2023-04-13T16:42:53.292Z,94049.69
2023-04-13T16:45:20.292Z,94049.94
2023-04-13T16:47:47.051Z,94047.50
2023-04-13T16:50:16.191Z,94044.03
2023-04-13T16:52:43.010Z,94041.00
2023-04-13T16:55:14.142Z,94035.22
2023-04-13T16:57:42.030Z,94042.22
2023-04-13T17:00:10.245Z,94033.56
2023-04-13T17:02:38.176Z,94034.69
2023-04-13T17:05:08.671Z,94033.72
2023-04-13T17:07:36.806Z,94042.47
2023-04-13T17:10:04.456Z,94041.25
2023-04-13T17:12:31.425Z,94038.19
2023-04-13T17:14:58.606Z,94040.44
2023-04-13T17:17:25.354Z,94041.22
2023-04-13T17:19:53.801Z,94044.34
2023-04-13T17:22:22.781Z,94049.00
2023-04-13T17:24:49.750Z,94051.78
2023-04-13T17:27:16.595Z,94055.69
2023-04-13T17:29:43.440Z,94058.91
2023-04-13T17:32:10.198Z,94068.34
2023-04-13T17:34:37.216Z,94060.56
2023-04-13T17:37:03.848Z,94070.50
2023-04-13T17:39:30.485Z,94069.53
2023-04-13T17:41:58.040Z,94076.94
2023-04-13T17:44:24.808Z,94079.69
2023-04-13T17:46:54.294Z,94099.63
2023-04-13T17:49:22.208Z,94097.13
2023-04-13T17:51:49.081Z,94098.34
2023-04-13T17:54:16.391Z,94101.69
2023-04-13T17:56:43.297Z,94108.31
2023-04-13T17:59:14.537Z,94102.66
2023-04-13T18:01:43.201Z,94107.38
2023-04-13T18:04:11.320Z,94110.56
2023-04-13T18:06:39.609Z,94102.78
2023-04-13T18:09:06.567Z,94097.34
2023-04-13T18:11:33.601Z,94103.78
2023-04-13T18:14:01.303Z,94107.88
2023-04-13T18:16:28.129Z,94108.78
2023-04-13T18:18:54.796Z,94109.06
2023-04-13T18:21:21.368Z,94105.56
2023-04-13T18:23:48.202Z,94116.94
2023-04-13T18:26:15.901Z,94110.53
2023-04-13T18:28:42.788Z,94108.91
2023-04-13T18:31:09.693Z,94106.31
2023-04-13T18:33:36.387Z,94115.09
2023-04-13T18:36:03.144Z,94111.22
2023-04-13T18:38:29.686Z,94114.81
2023-04-13T18:40:56.294Z,94118.72
2023-04-13T18:43:23.379Z,94124.56
2023-04-13T18:45:50.082Z,94128.78
2023-04-13T18:48:16.853Z,94130.47
2023-04-13T18:50:44.375Z,94135.00
2023-04-13T18:53:11.052Z,94143.63
2023-04-13T18:55:38.192Z,94138.56
2023-04-13T18:58:04.901Z,94132.53
2023-04-13T19:00:32.424Z,94145.53
2023-04-13T19:03:00.060Z,94143.13
2023-04-13T19:05:27.812Z,94148.97
2023-04-13T19:07:58.866Z,94138.09
2023-04-13T19:10:26.576Z,94139.13
2023-04-13T19:12:53.653Z,94141.19
2023-04-13T19:15:22.171Z,94148.34
2023-04-13T19:17:50.530Z,94154.97
2023-04-13T19:20:17.541Z,94161.66
2023-04-13T19:22:44.262Z,94172.44
2023-04-13T19:25:14.791Z,94170.19
2023-04-13T19:27:43.114Z,94157.69
2023-04-13T19:30:10.433Z,94161.50
2023-04-13T19:32:37.574Z,94170.03
2023-04-13T19:35:05.398Z,94163.63
2023-04-13T19:37:32.582Z,94165.56
2023-04-13T19:39:59.306Z,94160.19
2023-04-13T19:42:26.255Z,94170.34
2023-04-13T19:44:52.940Z,94180.06
2023-04-13T19:47:19.805Z,94175.19
2023-04-13T19:49:46.556Z,94173.91
2023-04-13T19:52:16.401Z,94184.69
2023-04-13T19:54:43.753Z,94183.44
2023-04-13T19:57:11.217Z,94183.75
2023-04-13T19:59:39.740Z,94180.13
2023-04-13T20:02:06.975Z,94180.53
2023-04-13T20:04:33.954Z,94181.81
2023-04-13T20:07:01.306Z,94196.34
2023-04-13T20:09:28.286Z,94193.84
2023-04-13T20:11:54.951Z,94189.94
2023-04-13T20:14:21.888Z,94184.66
2023-04-13T20:16:48.647Z,94193.22
2023-04-13T20:19:15.611Z,94201.31
2023-04-13T20:21:42.389Z,94185.44
2023-04-13T20:24:09.300Z,94193.34
2023-04-13T20:26:35.956Z,94189.34
2023-04-13T20:29:03.639Z,94185.50
2023-04-13T20:31:32.583Z,94188.28
2023-04-13T20:33:59.476Z,94194.84
2023-04-13T20:36:27.156Z,94195.63
2023-04-13T20:38:54.763Z,94188.00
2023-04-13T20:41:21.928Z,94188.81
2023-04-13T20:43:50.748Z,94191.44
2023-04-13T20:46:17.491Z,94185.97
2023-04-13T20:51:15.858Z,94200.50
2023-04-13T20:53:43.033Z,94185.69
2023-04-13T20:56:09.763Z,94171.38
2023-04-13T20:58:37.475Z,94194.00
2023-04-13T21:01:04.680Z,94185.09
2023-04-13T21:03:32.362Z,94182.69
2023-04-13T21:05:59.655Z,94195.47
2023-04-13T21:08:27.435Z,94184.84
2023-04-13T21:10:54.092Z,94178.38
2023-04-13T21:13:21.892Z,94184.50
2023-04-13T21:15:48.449Z,94201.59
2023-04-13T21:18:15.359Z,94182.75
2023-04-13T21:20:43.592Z,94201.91
2023-04-13T21:23:10.718Z,94193.06
2023-04-13T21:25:37.378Z,94195.47
2023-04-13T21:28:04.178Z,94186.50
2023-04-13T21:30:31.066Z,94182.69
2023-04-13T21:32:57.740Z,94191.50
2023-04-13T21:35:24.379Z,94193.53
2023-04-13T21:37:50.994Z,94192.81
2023-04-13T21:40:18.424Z,94200.69
2023-04-13T21:42:45.094Z,94194.53
2023-04-13T21:45:11.819Z,94203.06
2023-04-13T21:47:38.467Z,94198.13
2023-04-13T21:50:05.828Z,94194.91
2023-04-13T21:52:32.533Z,94196.56
2023-04-13T21:54:59.936Z,94201.31
2023-04-13T21:57:26.799Z,94189.09
2023-04-13T21:59:54.554Z,94195.03
2023-04-13T22:02:21.610Z,94211.34
2023-04-13T22:04:48.241Z,94204.47
2023-04-13T22:07:14.948Z,94186.38
2023-04-13T22:09:41.722Z,94185.22
2023-04-13T22:12:10.785Z,94191.06
2023-04-13T22:14:37.496Z,94189.41
2023-04-13T22:17:04.112Z,94196.56
2023-04-13T22:19:30.857Z,94212.50
2023-04-13T22:21:57.530Z,94203.94
2023-04-13T22:24:24.207Z,94203.97
2023-04-13T22:26:51.313Z,94198.34
2023-04-13T22:29:17.992Z,94192.44
2023-04-13T22:31:45.849Z,94187.88
2023-04-13T22:34:12.631Z,94188.72
2023-04-13T22:36:39.415Z,94183.97
2023-04-13T22:39:05.977Z,94180.63
2023-04-13T22:41:32.803Z,94187.56
2023-04-13T22:43:59.385Z,94197.81
2023-04-13T22:46:26.455Z,94178.50
2023-04-13T22:48:53.293Z,94198.19
2023-04-13T22:51:20.157Z,94195.69
2023-04-13T22:53:49.796Z,94192.56
2023-04-13T22:56:16.614Z,94193.47
2023-04-13T22:58:43.431Z,94191.91
2023-04-13T23:01:10.218Z,94186.25
2023-04-13T23:03:36.934Z,94191.69
2023-04-13T23:06:06.559Z,94186.91
2023-04-13T23:08:33.242Z,94183.28
2023-04-13T23:11:09.809Z,94181.31
2023-04-13T23:13:36.902Z,94188.03
2023-04-13T23:16:05.178Z,94196.31
2023-04-13T23:18:31.975Z,94197.53
2023-04-13T23:20:58.544Z,94195.97
2023-04-13T23:23:27.278Z,94195.34
2023-04-13T23:25:53.876Z,94194.69
2023-04-13T23:28:20.838Z,94195.69
2023-04-13T23:30:47.493Z,94187.75
2023-04-13T23:33:14.112Z,94193.66
2023-04-13T23:35:40.716Z,94182.28
2023-04-13T23:38:07.476Z,94186.03
2023-04-13T23:40:34.299Z,94200.78
2023-04-13T23:43:01.013Z,94200.78
2023-04-13T23:45:28.601Z,94194.97
2023-04-13T23:47:55.654Z,94178.88
2023-04-13T23:50:22.471Z,94193.38
2023-04-13T23:52:49.148Z,94186.28
2023-04-13T23:55:16.301Z,94183.06
2023-04-13T23:57:43.012Z,94183.69
